aviador You're here:

SAOC Decoded Metar

RIO CUARTO in ARGENTINA
Report Time2017-09-25 16:00:00
UTC Time2017-09-25 16:57:20
Flight Rules vfr VFR
Wind020° at 11 kt
W.Decomp.*RWY 36: 10.2 kt HW 4.1 kt RCW
RWY 05: 9.7 kt HW 5.2 kt LCW
W.Rank020° ranks 3
Current wind is below 020° avg. (12.5)
Visibility9999 m
Phenomena:N/A
Clouds:Scattered 025 Hf
Expected CloudBase > 3,600 ft AGL from Temp-Dew spread
CeilingNone
Temp24°C (ISA +12)
Dew Point15°C (57% RH)
AAT21.6°C
QNH1019 hPa
Density Alt2,772 ft
Elevation1,381 ft
Report Wrong Elevation
Raw Report
METAR SAOC 251600Z 02011KT 9999 SCT025 24/15 Q1019=

Extra information for SAOC:More info

Metar Taf Metar & Taf Last 4 Metars F.Rules Stats Wind Profile Meteogram Temp Stats Airport Information Weather charts Add Link Nearby VenuesMetar ALERT Operation Metar Decoded Social comments